KDTN

Shreveport Downtown Airport

Shreveport, Louisiana, USA
METAR KDTN 191453Z 32008KT 4SM -RA BR BKN007 OVC048 06/04 A3025 RMK AO2 SLP243 P0003 6//// T00560044 51019
Observed Flight Rules
Nov-19 @ 14:53 UTC (53 minutes ago) Instrument Flight Rules
Wind Visibility Clouds Conditions
320° at 8 knots 4 miles
  • Broken at 700' AGL
  • Overcast at 4,800' AGL
  • Light Rain
  • Mist
Temperatures Readings Precipitation
Current 6°C / 43°F
Dewpoint 4°C / 39°F
Humidity 87%
Altimeter 30.25" Hg
Pressure 1024.3 hPa
Elevation 53
Current Rain 0.03
METAR KDTN 191453Z 32008KT 4SM -RA BR BKN007 OVC048 06/04 A3025 RMK AO2 SLP243 P0003 6//// T00560044 51019
Observed Flight Rules
Nov-19 @ 14:53 UTC
(53 minutes ago)
IFR
Wind Visibility
320° at 8 knots 4 miles
Clouds
  • Broken at 700' AGL
  • Overcast at 4,800' AGL
Conditions
  • Light Rain
  • Mist
Temperature Dewpoint
6°C / 43°F 4°C / 39°F
Humidity Altimeter Pressure
87% 30.25" Hg 1024.3 hPa
Current Rain
0.03